Have a Safe July 4th! 

Flight Track Log - Related Links

Times and Time Zones

All times are in EDT time to prevent confusion due to time zone crossing. See the N3LA flight status page for this flight to view local times or setup timezone preferences in your user account.

Time Position Orientation Groundspeed Altitude Reporting Facility
EDT Latitude Longitude Course Direction KTS MPH feet Rate Location/Type
Thu 03:42:38 PM 42.4414 -73.2503 185° South 132 152 2,400  Level Boston Center
Thu 03:44:02 PM 42.3975 -73.2553 185° South 125 144 3,600 814 Climbing Boston Center
Thu 03:44:58 PM 42.3686 -73.2297 147° Southeast 129 148 4,300 738 Climbing Boston Center
Thu 03:46:04 PM 42.3333 -73.1983 147° Southeast 139 160 5,100 722 Climbing Boston Center
Thu 03:47:11 PM 42.2939 -73.1669 150° Southeast 144 166 5,900 609 Climbing Boston Center
Thu 03:48:12 PM 42.2692 -73.1247 128° Southeast 157 181 6,400 488 Climbing Boston Center
Thu 03:49:14 PM 42.2528 -73.0683 111° Southeast 158 182 6,900 327 Climbing Boston Center
Thu 03:50:02 PM 42.2364 -73.0233 116° Southeast 166 191 7,000 55 Climbing Boston Center
Thu 03:51:03 PM 42.2158 -72.9586 113° Southeast 185 213 7,000  Level Boston Center
Thu 03:52:04 PM 42.1911 -72.9053 122° Southeast 177 204 7,000  Level Boston Center
Thu 03:53:10 PM 42.1475 -72.8658 146° Southeast 176 203 7,000  Level Boston Center
Thu 03:54:05 PM 42.1100 -72.8319 146° Southeast 176 203 7,000  Level Boston Center
Thu 03:55:06 PM 42.0706 -72.7869 140° Southeast 176 203 7,000  Level Boston Center
Thu 03:56:01 PM 42.0394 -72.7531 141° Southeast 171 197 7,000  Level Boston Center
Thu 03:57:14 PM 41.9894 -72.7056 145° Southeast 169 194 7,000  Level Boston Center
Thu 03:58:15 PM 41.9500 -72.6689 145° Southeast 167 192 7,000  Level Boston Center
Thu 03:59:16 PM 41.9125 -72.6325 144° Southeast 169 194 7,000  Level Boston Center
Thu 04:00:23 PM 41.8731 -72.5822 136° Southeast 170 196 7,000  Level Boston Center
Thu 04:01:24 PM 41.8397 -72.5403 137° Southeast 174 200 7,000  Level Boston Center
Thu 04:02:25 PM 41.8022 -72.4958 139° Southeast 173 199 7,000  Level Boston Center
Thu 04:03:20 PM 41.7711 -72.4539 135° Southeast 173 199 7,000  Level Boston Center
Thu 04:03:53 PM 41.7522 -72.4317 139° Southeast 176 203 7,000  Level Boston Center
Thu 04:04:59 PM 41.7086 -72.3900 144° Southeast 169 194 7,000  Level Boston Center
Thu 04:06:12 PM 41.6625 -72.3483 146° Southeast 170 196 7,000  Level Boston Center
Thu 04:07:13 PM 41.6189 -72.3125 148° Southeast 174 200 7,000  Level Boston Center
Thu 04:08:08 PM 41.5833 -72.2819 147° Southeast 173 199 7,000  Level Boston Center
Thu 04:09:15 PM 41.5311 -72.2625 164° South 163 188 7,000  Level Boston Center
Thu 04:10:15 PM 41.4833 -72.2517 170° South 174 200 7,000  Level Boston Center
Thu 04:11:16 PM 41.4353 -72.2492 178° South 169 194 7,000  Level Boston Center
Thu 04:12:11 PM 41.3917 -72.2464 177° South 174 200 7,000  Level Boston Center
Thu 04:13:12 PM 41.3436 -72.2467 180° South 164 189 7,000 47 Level Boston Center
Thu 04:14:19 PM 41.2956 -72.2247 161° South 165 190 7,100  Climbing Boston Center
Thu 04:15:19 PM 41.2831 -72.1583 104° East 179 206 7,000 -50 Descending Boston Center
Thu 04:16:20 PM 41.2828 -72.0919 90° East 169 194 7,000  Level Boston Center
Thu 04:17:21 PM 41.2931 -72.0339 77° East 170 196 7,000  Level Boston Center
Thu 04:18:22 PM 41.3031 -71.9675 79° East 172 198 7,000  Level Boston Center
Thu 04:19:23 PM 41.3300 -71.9150 56° Northeast 174 200 7,000  Level Boston Center
Thu 04:20:17 PM 41.3631 -71.8675 47° Northeast 175 201 7,000  Level Boston Center
Thu 04:21:18 PM 41.3942 -71.8203 49° Northeast 177 204 7,000  Level Boston Center
Thu 04:22:25 PM 41.4250 -71.7619 55° Northeast 179 206 7,000  Level Boston Center
Thu 04:23:26 PM 41.4581 -71.7061 52° Northeast 179 206 7,000  Level Boston Center
Thu 04:24:27 PM 41.4847 -71.6503 57° Northeast 175 201 7,000  Level Boston Center
Thu 04:25:22 PM 41.5117 -71.6056 51° Northeast 179 206 7,000  Level Boston Center
Thu 04:26:22 PM 41.5383 -71.5497 57° Northeast 177 204 7,000  Level Boston Center
Thu 04:27:23 PM 41.5669 -71.4967 54° Northeast 179 206 7,000  Level Boston Center
Thu 04:28:24 PM 41.5936 -71.4381 59° Northeast 181 208 7,000  Level Boston Center
Thu 04:29:25 PM 41.6056 -71.3711 77° East 173 199 7,000  Level Boston Center
Thu 04:30:26 PM 41.6111 -71.3072 83° East 171 197 7,000  Level Boston Center
Thu 04:31:27 PM 41.6147 -71.2433 86° East 168 193 7,000  Level Boston Center
Thu 04:32:27 PM 41.6222 -71.1822 81° East 169 194 7,000 -99 Level Boston Center
Thu 04:33:28 PM 41.6278 -71.1181 83° East 168 193 6,800 -393 Descending Boston Center
Thu 04:34:29 PM 41.6292 -71.0486 88° East 185 213 6,200 -590 Descending Boston Center
Thu 04:36:00 PM 41.6314 -70.9508 88° East  Level FlightAware Approximate
Thu 04:43:00 PM 41.6521 -70.4998 85° East  Level FlightAware Approximate
Thu 04:44:00 PM 41.6562 -70.4354 85° East  Level FlightAware Approximate
Thu 04:45:00 PM 41.6602 -70.3711 85° East  Level FlightAware Approximate
Thu 04:46:00 PM 41.6642 -70.3067 85° East  Level FlightAware Approximate
Thu 04:47:00 PM 41.6693 -70.2804 85° East  Level Estimated
Thu 04:48:00 PM 41.6693 -70.2804 85° East  Level Estimated
Thu 04:49:00 PM 41.6693 -70.2804 85° East  Level Estimated
Thu 04:50:00 PM 41.6693 -70.2804 85° East  Level Estimated
Thu 04:51:00 PM 41.6693 -70.2804 85° East  Level Estimated
Thu 04:52:00 PM 41.6693 -70.2804 85° East  Level Estimated
Thu 04:53:00 PM 41.6693 -70.2804 85° East  Level Estimated
Thu 04:54:00 PM 41.6693 -70.2804 85° East  Level Estimated
Thu 04:55:00 PM 41.6693 -70.2804 85° East  Level Estimated
Thu 04:56:00 PM 41.6693 -70.2804 85° East  Level Estimated
Thu 04:57:00 PM 41.6693 -70.2804 85° East  Level Estimated
Thu 04:58:00 PM 41.6693 -70.2804 85° East  Level Estimated

Login

Don't have an account? Register now (free) for customized features, flight alerts, and more!